createdAt,value
2022-10-22T00:01:05.480Z,100108.78
2022-10-22T00:03:32.113Z,100101.06
2022-10-22T00:05:58.843Z,100108.38
2022-10-22T00:08:25.580Z,100103.00
2022-10-22T00:10:52.925Z,100095.31
2022-10-22T00:13:20.396Z,100092.00
2022-10-22T00:15:47.122Z,100089.03
2022-10-22T00:18:14.180Z,100097.47
2022-10-22T00:20:40.840Z,100098.94
2022-10-22T00:23:07.502Z,100102.13
2022-10-22T00:25:35.791Z,100123.31
2022-10-22T00:28:03.584Z,100133.56
2022-10-22T00:30:30.269Z,100130.75
2022-10-22T00:32:56.831Z,100131.19
2022-10-22T00:35:23.510Z,100144.22
2022-10-22T00:37:50.228Z,100120.94
2022-10-22T00:40:16.898Z,100126.09
2022-10-22T00:42:43.773Z,100133.06
2022-10-22T00:45:10.639Z,100141.44
2022-10-22T00:47:42.930Z,100133.47
2022-10-22T00:50:16.337Z,100136.00
2022-10-22T00:52:44.191Z,100129.28
2022-10-22T00:55:11.680Z,100146.53
2022-10-22T00:57:38.495Z,100141.88
2022-10-22T01:00:07.081Z,100122.47
2022-10-22T01:02:34.215Z,100124.34
2022-10-22T01:05:00.863Z,100117.97
2022-10-22T01:07:27.560Z,100122.41
2022-10-22T01:10:23.389Z,100129.41
2022-10-22T01:13:13.920Z,100144.16
2022-10-22T01:15:45.741Z,100138.00
2022-10-22T01:18:32.024Z,100120.75
2022-10-22T01:21:21.228Z,100108.50
2022-10-22T01:24:03.005Z,100119.19
2022-10-22T01:26:41.898Z,100126.66
2022-10-22T01:29:24.565Z,100117.03
2022-10-22T01:32:15.652Z,100111.50
2022-10-22T01:34:46.965Z,100115.16
2022-10-22T01:37:15.597Z,100118.59
2022-10-22T01:39:45.367Z,100124.34
2022-10-22T01:42:13.472Z,100131.16
2022-10-22T01:44:40.134Z,100137.81
2022-10-22T01:47:50.453Z,100131.59
2022-10-22T01:50:27.397Z,100119.56
2022-10-22T01:53:02.454Z,100110.50
2022-10-22T01:55:34.636Z,100108.53
2022-10-22T01:58:19.503Z,100105.25
2022-10-22T02:01:07.372Z,100108.88
2022-10-22T02:03:45.132Z,100118.56
2022-10-22T02:06:19.037Z,100113.69
2022-10-22T02:08:48.630Z,100122.63
2022-10-22T02:11:15.954Z,100122.13
2022-10-22T02:13:47.085Z,100129.28
2022-10-22T02:16:20.947Z,100127.75
2022-10-22T02:18:52.718Z,100127.34
2022-10-22T02:21:19.939Z,100134.19
2022-10-22T02:23:46.869Z,100122.47
2022-10-22T02:26:25.400Z,100114.13
2022-10-22T02:28:58.160Z,100120.53
2022-10-22T02:31:31.150Z,100105.84
2022-10-22T02:34:04.830Z,100108.47
2022-10-22T02:36:32.357Z,100110.41
2022-10-22T02:38:59.865Z,100119.50
2022-10-22T02:41:26.908Z,100113.94
2022-10-22T02:43:55.162Z,100114.88
2022-10-22T02:46:22.103Z,100119.22
2022-10-22T02:48:48.693Z,100118.72
2022-10-22T02:51:15.973Z,100119.22
2022-10-22T02:53:42.765Z,100136.44
2022-10-22T02:56:09.468Z,100126.19
2022-10-22T02:58:36.071Z,100126.25
2022-10-22T03:01:02.805Z,100125.63
2022-10-22T03:03:29.400Z,100125.81
2022-10-22T03:05:56.127Z,100123.16
2022-10-22T03:08:23.029Z,100123.06
2022-10-22T03:10:49.661Z,100129.25
2022-10-22T03:13:16.252Z,100129.88
2022-10-22T03:15:42.900Z,100127.09
2022-10-22T03:18:09.774Z,100125.81
2022-10-22T03:20:36.449Z,100130.53
2022-10-22T03:23:03.548Z,100136.28
2022-10-22T03:25:34.445Z,100140.56
2022-10-22T03:28:06.977Z,100137.78
2022-10-22T03:30:33.597Z,100139.06
2022-10-22T03:33:00.189Z,100147.84
2022-10-22T03:35:27.127Z,100151.28
2022-10-22T03:37:54.756Z,100149.88
2022-10-22T03:40:21.588Z,100149.97
2022-10-22T03:42:48.244Z,100149.78
2022-10-22T03:45:14.896Z,100154.69
2022-10-22T03:47:41.802Z,100157.66
2022-10-22T03:50:09.316Z,100163.97
2022-10-22T03:52:40.069Z,100171.31
2022-10-22T03:55:08.078Z,100166.44
2022-10-22T03:57:34.944Z,100161.41
2022-10-22T04:00:01.708Z,100160.09
2022-10-22T04:02:28.316Z,100165.25
2022-10-22T04:04:54.960Z,100166.44
2022-10-22T04:07:21.554Z,100163.66
2022-10-22T04:09:48.133Z,100166.84
2022-10-22T04:12:14.732Z,100167.06
2022-10-22T04:14:41.412Z,100177.19
2022-10-22T04:17:07.986Z,100188.16
2022-10-22T04:19:34.674Z,100181.25
2022-10-22T04:22:01.548Z,100185.81
2022-10-22T04:24:29.956Z,100193.28
2022-10-22T04:26:56.726Z,100183.06
2022-10-22T04:29:24.246Z,100188.59
2022-10-22T04:31:50.780Z,100190.09
2022-10-22T04:34:17.536Z,100179.22
2022-10-22T04:36:44.106Z,100195.63
2022-10-22T04:39:10.756Z,100205.84
2022-10-22T04:41:39.211Z,100217.97
2022-10-22T04:44:09.963Z,100211.03
2022-10-22T04:46:40.229Z,100211.84
2022-10-22T04:49:06.832Z,100212.25
2022-10-22T04:51:33.498Z,100206.50
2022-10-22T04:54:00.122Z,100210.66
2022-10-22T04:56:29.811Z,100204.25
2022-10-22T04:59:02.314Z,100204.69
2022-10-22T05:01:31.892Z,100205.00
2022-10-22T05:04:00.680Z,100221.22
2022-10-22T05:06:28.717Z,100222.31
2022-10-22T05:08:58.346Z,100215.78
2022-10-22T05:11:28.372Z,100212.69
2022-10-22T05:13:59.296Z,100212.03
2022-10-22T05:16:27.607Z,100210.59
2022-10-22T05:18:54.237Z,100205.34
2022-10-22T05:21:21.652Z,100203.72
2022-10-22T05:23:50.176Z,100206.50
2022-10-22T05:26:19.257Z,100206.28
2022-10-22T05:28:49.733Z,100210.25
2022-10-22T05:31:17.198Z,100197.34
2022-10-22T05:33:45.582Z,100203.31
2022-10-22T05:36:21.582Z,100202.03
2022-10-22T05:38:49.455Z,100204.19
2022-10-22T05:41:19.152Z,100203.09
2022-10-22T05:43:46.135Z,100207.03
2022-10-22T05:49:30.450Z,100206.31
2022-10-22T05:51:57.138Z,100209.72
2022-10-22T05:54:23.760Z,100214.28
2022-10-22T05:56:50.502Z,100223.59
2022-10-22T05:59:17.171Z,100227.59
2022-10-22T06:01:43.978Z,100224.19
2022-10-22T06:04:12.920Z,100220.81
2022-10-22T06:06:42.820Z,100231.91
2022-10-22T06:09:31.993Z,100235.97
2022-10-22T06:11:59.375Z,100234.56
2022-10-22T06:14:26.798Z,100234.66
2022-10-22T06:16:53.644Z,100242.13
2022-10-22T06:19:23.352Z,100247.44
2022-10-22T06:21:50.014Z,100247.25
2022-10-22T06:24:16.859Z,100248.97
2022-10-22T06:26:43.914Z,100257.16
2022-10-22T06:29:11.052Z,100257.16
2022-10-22T06:31:37.852Z,100261.09
2022-10-22T06:34:06.439Z,100262.84
2022-10-22T06:36:33.242Z,100263.47
2022-10-22T06:38:59.860Z,100269.63
2022-10-22T06:41:28.794Z,100278.09
2022-10-22T06:43:57.560Z,100288.97
2022-10-22T06:46:25.083Z,100285.41
2022-10-22T06:48:56.448Z,100278.50
2022-10-22T06:51:23.541Z,100284.75
2022-10-22T06:53:50.683Z,100283.19
2022-10-22T06:56:20.024Z,100287.56
2022-10-22T06:58:51.230Z,100289.50
2022-10-22T07:01:21.261Z,100300.38
2022-10-22T07:03:51.614Z,100310.63
2022-10-22T07:06:18.763Z,100309.31
2022-10-22T07:08:45.496Z,100315.97
2022-10-22T07:11:17.427Z,100321.75
2022-10-22T07:13:44.936Z,100316.59
2022-10-22T07:16:12.080Z,100322.38
2022-10-22T07:18:39.970Z,100335.06
2022-10-22T07:21:07.926Z,100330.66
2022-10-22T07:23:34.998Z,100335.38
2022-10-22T07:26:02.846Z,100337.22
2022-10-22T07:28:30.634Z,100329.22
2022-10-22T07:30:57.277Z,100337.53
2022-10-22T07:33:23.897Z,100341.69
2022-10-22T07:35:50.567Z,100344.25
2022-10-22T07:38:17.366Z,100346.16
2022-10-22T07:40:43.976Z,100349.63
2022-10-22T07:43:10.586Z,100348.56
2022-10-22T07:45:37.276Z,100353.16
2022-10-22T07:48:04.676Z,100347.19
2022-10-22T07:50:31.267Z,100347.84
2022-10-22T07:52:58.373Z,100355.28
2022-10-22T07:55:25.631Z,100350.91
2022-10-22T07:57:52.285Z,100360.44
2022-10-22T08:00:21.712Z,100367.47
2022-10-22T08:02:51.207Z,100373.56
2022-10-22T08:05:18.067Z,100363.19
2022-10-22T08:07:44.960Z,100362.75
2022-10-22T08:10:12.377Z,100356.03
2022-10-22T08:12:39.628Z,100368.41
2022-10-22T08:15:07.445Z,100366.66
2022-10-22T08:17:34.403Z,100370.16
2022-10-22T08:20:00.972Z,100368.69
2022-10-22T08:22:27.723Z,100374.22
2022-10-22T08:24:54.381Z,100369.91
2022-10-22T08:27:21.092Z,100376.94
2022-10-22T08:29:47.743Z,100375.91
2022-10-22T08:32:14.482Z,100386.41
2022-10-22T08:34:41.215Z,100379.63
2022-10-22T08:37:08.639Z,100382.06
2022-10-22T08:39:35.657Z,100383.41
2022-10-22T08:42:11.340Z,100382.97
2022-10-22T08:44:54.966Z,100386.75
2022-10-22T08:47:48.187Z,100382.22
2022-10-22T08:50:23.059Z,100388.78
2022-10-22T08:52:57.651Z,100388.84
2022-10-22T08:55:25.574Z,100390.50
2022-10-22T08:58:16.010Z,100402.72
2022-10-22T09:00:46.554Z,100395.06
2022-10-22T09:03:49.509Z,100395.91
2022-10-22T09:06:22.059Z,100390.09
2022-10-22T09:08:49.765Z,100398.25
2022-10-22T09:11:26.306Z,100399.72
2022-10-22T09:13:55.456Z,100400.50
2022-10-22T09:16:37.266Z,100386.47
2022-10-22T09:19:41.578Z,100397.84
2022-10-22T09:22:14.066Z,100386.41
2022-10-22T09:24:46.334Z,100388.59
2022-10-22T09:27:28.682Z,100381.06
2022-10-22T09:29:55.417Z,100384.09
2022-10-22T09:32:22.427Z,100394.34
2022-10-22T09:34:50.427Z,100388.59
2022-10-22T09:37:19.489Z,100389.47
2022-10-22T09:39:52.658Z,100396.44
2022-10-22T09:42:21.209Z,100394.88
2022-10-22T09:44:56.382Z,100398.91
2022-10-22T09:47:43.539Z,100399.97
2022-10-22T09:50:27.759Z,100394.50
2022-10-22T09:53:00.317Z,100400.25
2022-10-22T09:55:27.438Z,100398.09
2022-10-22T09:58:00.404Z,100406.34
2022-10-22T10:00:28.418Z,100402.88
2022-10-22T10:02:58.254Z,100407.78
2022-10-22T10:05:31.504Z,100414.75
2022-10-22T10:07:59.387Z,100403.69
2022-10-22T10:10:41.830Z,100403.53
2022-10-22T10:13:42.637Z,100404.22
2022-10-22T10:16:27.841Z,100403.31
2022-10-22T10:18:54.478Z,100405.81
2022-10-22T10:21:44.172Z,100408.13
2022-10-22T10:24:22.710Z,100414.84
2022-10-22T10:26:58.523Z,100417.19
2022-10-22T10:32:27.230Z,100419.28
2022-10-22T10:35:31.331Z,100413.63
2022-10-22T10:38:28.772Z,100413.31
2022-10-22T10:41:08.288Z,100418.00
2022-10-22T10:43:53.625Z,100427.19
2022-10-22T10:46:50.006Z,100416.56
2022-10-22T10:49:29.936Z,100425.25
2022-10-22T10:52:05.652Z,100413.47
2022-10-22T10:55:02.839Z,100426.25
2022-10-22T10:57:57.300Z,100426.09
2022-10-22T11:00:24.062Z,100427.34
2022-10-22T11:03:28.651Z,100423.28
2022-10-22T11:06:02.104Z,100427.81
2022-10-22T11:08:36.396Z,100427.66
2022-10-22T11:11:11.659Z,100431.03
2022-10-22T11:13:53.428Z,100423.13
2022-10-22T11:16:40.204Z,100424.88
2022-10-22T11:19:46.535Z,100429.59
2022-10-22T11:22:16.180Z,100431.34
2022-10-22T11:25:02.722Z,100423.63
2022-10-22T11:27:48.349Z,100426.81
2022-10-22T11:30:18.723Z,100428.19
2022-10-22T11:33:07.307Z,100429.66
2022-10-22T11:35:35.723Z,100430.94
2022-10-22T11:38:06.448Z,100428.09
2022-10-22T11:40:37.054Z,100422.06
2022-10-22T11:43:05.085Z,100425.06
2022-10-22T11:45:40.832Z,100419.69
2022-10-22T11:48:10.540Z,100419.81
2022-10-22T11:50:48.392Z,100420.44
2022-10-22T11:53:21.573Z,100422.38
2022-10-22T11:55:51.838Z,100426.38
2022-10-22T11:58:42.811Z,100410.72
2022-10-22T12:01:09.491Z,100423.94
2022-10-22T12:03:43.969Z,100415.06
2022-10-22T12:06:15.506Z,100421.44
2022-10-22T12:08:43.924Z,100426.09
2022-10-22T12:11:10.553Z,100427.63
2022-10-22T12:14:01.600Z,100433.97
2022-10-22T12:16:55.649Z,100426.56
2022-10-22T12:19:23.424Z,100428.50
2022-10-22T12:21:56.210Z,100438.09
2022-10-22T12:24:25.950Z,100444.66
2022-10-22T12:26:52.929Z,100439.53
2022-10-22T12:29:22.744Z,100439.00
2022-10-22T12:31:49.902Z,100442.22
2022-10-22T12:34:22.279Z,100442.41
2022-10-22T12:36:50.949Z,100444.66
2022-10-22T12:39:25.295Z,100436.75
2022-10-22T12:41:53.980Z,100440.97
2022-10-22T12:44:20.611Z,100438.13
2022-10-22T12:46:53.089Z,100438.97
2022-10-22T12:49:36.535Z,100430.47
2022-10-22T12:52:13.990Z,100435.59
2022-10-22T12:54:40.779Z,100433.31
2022-10-22T12:57:13.209Z,100431.91
2022-10-22T12:59:45.906Z,100425.16
2022-10-22T13:02:24.642Z,100429.19
2022-10-22T13:05:27.662Z,100431.91
2022-10-22T13:08:03.364Z,100445.53
2022-10-22T13:10:35.917Z,100436.88
2022-10-22T13:13:08.821Z,100438.06
2022-10-22T13:15:38.447Z,100442.31
2022-10-22T13:18:15.080Z,100442.91
2022-10-22T13:20:57.783Z,100441.28
2022-10-22T13:23:28.019Z,100442.09
2022-10-22T13:26:00.422Z,100443.31
2022-10-22T13:28:28.547Z,100449.72
2022-10-22T13:31:24.132Z,100443.22
2022-10-22T13:33:55.664Z,100445.50
2022-10-22T13:36:23.352Z,100440.13
2022-10-22T13:38:50.111Z,100443.59
2022-10-22T13:41:20.750Z,100445.25
2022-10-22T13:43:47.752Z,100446.38
2022-10-22T13:46:14.576Z,100440.97
2022-10-22T13:48:41.515Z,100443.09
2022-10-22T13:51:15.336Z,100445.38
2022-10-22T13:53:43.635Z,100444.41
2022-10-22T13:56:15.532Z,100451.31
2022-10-22T13:58:43.419Z,100454.34
2022-10-22T14:01:25.477Z,100456.13
2022-10-22T14:03:58.009Z,100459.38
2022-10-22T14:06:28.830Z,100460.00
2022-10-22T14:08:58.644Z,100457.09
2022-10-22T14:11:30.817Z,100459.03
2022-10-22T14:13:57.419Z,100454.09
2022-10-22T14:16:26.657Z,100460.44
2022-10-22T14:18:55.140Z,100460.59
2022-10-22T14:21:21.884Z,100454.00
2022-10-22T14:23:51.136Z,100459.69
2022-10-22T14:26:31.433Z,100454.38
2022-10-22T14:29:14.140Z,100457.41
2022-10-22T14:31:43.919Z,100460.41
2022-10-22T14:34:13.640Z,100464.34
2022-10-22T14:36:40.354Z,100461.16
2022-10-22T14:39:07.023Z,100463.41
2022-10-22T14:41:33.863Z,100458.69
2022-10-22T14:44:01.710Z,100458.41
2022-10-22T14:46:28.475Z,100457.56
2022-10-22T14:48:55.164Z,100458.25
2022-10-22T14:51:21.936Z,100463.41
2022-10-22T14:53:49.061Z,100472.63
2022-10-22T14:56:18.573Z,100470.75
2022-10-22T14:58:45.815Z,100473.59
2022-10-22T15:01:12.464Z,100482.09
2022-10-22T15:03:39.106Z,100479.75
2022-10-22T15:06:06.043Z,100487.53
2022-10-22T15:08:33.062Z,100490.22
2022-10-22T15:11:02.324Z,100480.00
2022-10-22T15:13:29.844Z,100472.63
2022-10-22T15:15:57.448Z,100475.09
2022-10-22T15:18:24.810Z,100475.38
2022-10-22T15:20:55.651Z,100484.63
2022-10-22T15:23:22.489Z,100479.75
2022-10-22T15:25:49.075Z,100484.28
2022-10-22T15:28:15.720Z,100486.28
2022-10-22T15:30:42.388Z,100490.19
2022-10-22T15:33:09.073Z,100503.13
2022-10-22T15:35:35.676Z,100507.53
2022-10-22T15:38:02.642Z,100500.72
2022-10-22T15:40:29.192Z,100502.66
2022-10-22T15:42:55.835Z,100515.53
2022-10-22T15:45:24.166Z,100521.13
2022-10-22T15:47:50.776Z,100519.34
2022-10-22T15:50:17.606Z,100521.97
2022-10-22T15:52:44.277Z,100520.25
2022-10-22T15:57:43.175Z,100520.47
2022-10-22T16:00:10.701Z,100522.53
2022-10-22T16:02:41.775Z,100523.34
2022-10-22T16:05:08.903Z,100530.19
2022-10-22T16:07:35.564Z,100536.44
2022-10-22T16:10:02.176Z,100541.03
2022-10-22T16:12:28.762Z,100542.00
2022-10-22T16:14:55.395Z,100552.72
2022-10-22T16:17:22.033Z,100561.94
2022-10-22T16:19:48.655Z,100555.78
2022-10-22T16:22:15.814Z,100555.91
2022-10-22T16:24:43.144Z,100563.34
2022-10-22T16:27:10.450Z,100565.06
2022-10-22T16:29:37.895Z,100571.44
2022-10-22T16:32:04.729Z,100571.00
2022-10-22T16:34:31.341Z,100568.44
2022-10-22T16:36:57.965Z,100578.81
2022-10-22T16:39:24.749Z,100575.34
2022-10-22T16:41:51.813Z,100582.13
2022-10-22T16:44:18.518Z,100583.19
2022-10-22T16:46:45.080Z,100577.06
2022-10-22T16:49:11.795Z,100579.22
2022-10-22T16:51:39.437Z,100589.72
2022-10-22T16:54:09.676Z,100588.00
2022-10-22T16:56:38.970Z,100596.78
2022-10-22T16:59:06.423Z,100600.19
2022-10-22T17:01:36.764Z,100604.34
2022-10-22T17:04:06.309Z,100612.59
2022-10-22T17:06:32.909Z,100622.41
2022-10-22T17:08:59.671Z,100619.19
2022-10-22T17:11:29.882Z,100622.84
2022-10-22T17:13:56.523Z,100622.28
2022-10-22T17:16:24.761Z,100625.56
2022-10-22T17:18:53.888Z,100621.59
2022-10-22T17:21:21.577Z,100623.66
2022-10-22T17:23:48.464Z,100628.44
2022-10-22T17:26:19.593Z,100630.16
2022-10-22T17:28:46.903Z,100635.72
2022-10-22T17:31:24.155Z,100637.63
2022-10-22T17:33:52.917Z,100643.00
2022-10-22T17:36:21.381Z,100647.25
2022-10-22T17:38:50.646Z,100640.63
2022-10-22T17:41:20.546Z,100646.06
2022-10-22T17:43:47.943Z,100649.56
2022-10-22T17:46:19.224Z,100648.34
2022-10-22T17:48:52.510Z,100648.25
2022-10-22T17:51:20.247Z,100647.69
2022-10-22T17:53:47.404Z,100649.75
2022-10-22T17:56:16.441Z,100651.34
2022-10-22T17:58:43.236Z,100649.19
2022-10-22T18:01:37.709Z,100648.34
2022-10-22T18:04:08.046Z,100652.72
2022-10-22T18:06:35.262Z,100651.97
2022-10-22T18:09:06.936Z,100651.13
2022-10-22T18:11:36.484Z,100647.91
2022-10-22T18:14:03.720Z,100658.72
2022-10-22T18:16:30.489Z,100655.72
2022-10-22T18:18:57.587Z,100655.03
2022-10-22T18:21:26.798Z,100664.28
2022-10-22T18:23:54.148Z,100668.22
2022-10-22T18:26:24.359Z,100670.38
2022-10-22T18:28:53.465Z,100668.31
2022-10-22T18:31:22.779Z,100669.53
2022-10-22T18:33:49.611Z,100672.06
2022-10-22T18:36:19.440Z,100676.88
2022-10-22T18:38:53.640Z,100682.22
2022-10-22T18:41:21.134Z,100680.16
2022-10-22T18:43:51.443Z,100675.94
2022-10-22T18:46:18.863Z,100674.38
2022-10-22T18:48:45.660Z,100676.03
2022-10-22T18:51:13.947Z,100676.56
2022-10-22T18:53:40.782Z,100670.38
2022-10-22T18:56:09.315Z,100673.03
2022-10-22T18:58:40.823Z,100670.59
2022-10-22T19:01:13.207Z,100676.22
2022-10-22T19:03:39.998Z,100672.94
2022-10-22T19:06:07.236Z,100676.03
2022-10-22T19:08:35.924Z,100676.66
2022-10-22T19:11:08.456Z,100679.25
2022-10-22T19:13:35.083Z,100684.22
2022-10-22T19:16:02.779Z,100682.44
2022-10-22T19:18:29.431Z,100682.78
2022-10-22T19:21:00.880Z,100690.25
2022-10-22T19:23:30.308Z,100697.19
2022-10-22T19:26:05.841Z,100698.47
2022-10-22T19:28:33.143Z,100698.34
2022-10-22T19:31:00.066Z,100703.47
2022-10-22T19:33:27.693Z,100698.91
2022-10-22T19:35:54.292Z,100701.16
2022-10-22T19:38:21.047Z,100701.13
2022-10-22T19:40:47.678Z,100703.81
2022-10-22T19:43:18.153Z,100702.19
2022-10-22T19:45:45.689Z,100705.00
2022-10-22T19:48:12.300Z,100700.28
2022-10-22T19:50:39.106Z,100699.53
2022-10-22T19:53:05.763Z,100709.47
2022-10-22T19:55:32.401Z,100716.88
2022-10-22T19:57:59.024Z,100714.91
2022-10-22T20:00:25.769Z,100715.22
2022-10-22T20:02:52.336Z,100711.94
2022-10-22T20:05:19.126Z,100717.50
2022-10-22T20:07:45.794Z,100725.16
2022-10-22T20:10:12.506Z,100721.63
2022-10-22T20:12:39.194Z,100724.13
2022-10-22T20:15:06.492Z,100728.44
2022-10-22T20:17:33.968Z,100733.03
2022-10-22T20:20:00.731Z,100738.69
2022-10-22T20:22:27.295Z,100742.63
2022-10-22T20:24:54.354Z,100748.75
2022-10-22T20:27:21.509Z,100739.38
2022-10-22T20:29:48.116Z,100736.97
2022-10-22T20:32:14.752Z,100739.88
2022-10-22T20:34:42.519Z,100743.25
2022-10-22T20:37:09.279Z,100744.41
2022-10-22T20:39:35.886Z,100743.06
2022-10-22T20:42:02.664Z,100746.50
2022-10-22T20:44:29.310Z,100743.75
2022-10-22T20:49:27.691Z,100751.88
2022-10-22T20:51:54.268Z,100747.34
2022-10-22T20:54:20.900Z,100748.25
2022-10-22T20:56:48.063Z,100733.66
2022-10-22T20:59:15.368Z,100743.66
2022-10-22T21:01:48.764Z,100743.19
2022-10-22T21:04:16.642Z,100746.09
2022-10-22T21:06:43.400Z,100741.38
2022-10-22T21:09:12.511Z,100744.91
2022-10-22T21:11:40.399Z,100745.03
2022-10-22T21:14:09.372Z,100744.56
2022-10-22T21:16:39.870Z,100755.09
2022-10-22T21:19:06.488Z,100750.75
2022-10-22T21:21:33.056Z,100749.69
2022-10-22T21:23:59.718Z,100749.97
2022-10-22T21:26:26.423Z,100746.38
2022-10-22T21:28:53.349Z,100742.88
2022-10-22T21:31:25.917Z,100749.72
2022-10-22T21:33:53.873Z,100746.31
2022-10-22T21:36:23.407Z,100758.00
2022-10-22T21:38:53.831Z,100753.09
2022-10-22T21:41:23.670Z,100756.03
2022-10-22T21:43:51.130Z,100747.81
2022-10-22T21:46:22.299Z,100762.66
2022-10-22T21:49:02.916Z,100761.66
2022-10-22T21:51:31.886Z,100760.53
2022-10-22T21:53:58.820Z,100755.47
2022-10-22T21:56:28.100Z,100753.47
2022-10-22T21:58:55.213Z,100757.00
2022-10-22T22:01:22.540Z,100760.25
2022-10-22T22:03:50.559Z,100765.28
2022-10-22T22:06:22.513Z,100764.91
2022-10-22T22:08:52.524Z,100762.50
2022-10-22T22:11:21.854Z,100760.22
2022-10-22T22:13:48.985Z,100761.81
2022-10-22T22:16:27.084Z,100759.03
2022-10-22T22:18:55.980Z,100759.00
2022-10-22T22:21:22.522Z,100762.00
2022-10-22T22:23:50.274Z,100768.66
2022-10-22T22:26:24.107Z,100760.09
2022-10-22T22:28:53.744Z,100768.31
2022-10-22T22:31:38.735Z,100766.59
2022-10-22T22:34:10.172Z,100767.38
2022-10-22T22:36:42.628Z,100768.78
2022-10-22T22:39:13.205Z,100768.78
2022-10-22T22:41:41.119Z,100767.50
2022-10-22T22:44:07.795Z,100766.31
2022-10-22T22:46:34.620Z,100766.88
2022-10-22T22:49:01.223Z,100772.53
2022-10-22T22:51:28.056Z,100778.38
2022-10-22T22:53:54.870Z,100768.84
2022-10-22T22:56:23.904Z,100776.66
2022-10-22T22:58:50.741Z,100776.50
2022-10-22T23:01:22.352Z,100776.03
2022-10-22T23:03:56.324Z,100770.19
2022-10-22T23:06:25.404Z,100761.16
2022-10-22T23:08:53.161Z,100765.91
2022-10-22T23:11:21.430Z,100763.53
2022-10-22T23:13:51.429Z,100765.34
2022-10-22T23:16:21.442Z,100767.31
2022-10-22T23:18:49.404Z,100766.72
2022-10-22T23:21:19.712Z,100755.06
2022-10-22T23:23:51.829Z,100750.56
2022-10-22T23:26:22.664Z,100752.09
2022-10-22T23:28:49.617Z,100756.66
2022-10-22T23:31:18.329Z,100753.03
2022-10-22T23:33:45.719Z,100755.34
2022-10-22T23:36:12.965Z,100757.94
2022-10-22T23:38:40.760Z,100761.34
2022-10-22T23:41:08.065Z,100763.88
2022-10-22T23:43:38.701Z,100762.53
2022-10-22T23:46:07.390Z,100766.66
2022-10-22T23:48:34.668Z,100761.84
2022-10-22T23:51:13.244Z,100752.88
2022-10-22T23:53:41.283Z,100754.69
2022-10-22T23:56:18.140Z,100755.81
2022-10-22T23:58:44.983Z,100748.97
